Time;durP1;ratioP1;P1;durP2;ratioP2;P2;SDS_P1;SDS_P2;PMS_P1;PMS_P2;Temp;Humidity;BMP_temperature;BMP_pressure;BME280_temperature;BME280_humidity;BME280_pressure;Samples;Min_cycle;Max_cycle;Signal;HPM_P1;HPM_P2
2023/11/25 00:00:24;;;;;;;46.15;24.20;;;;;;;10.98;100.00;97712.19;5134282;27;20041;-65
2023/11/25 00:02:50;;;;;;;47.05;25.67;;;;;;;10.92;100.00;97699.81;5133840;27;20058;-63
2023/11/25 00:05:16;;;;;;;59.40;29.40;;;;;;;10.84;100.00;97676.22;5133460;27;20023;-65
2023/11/25 00:07:42;;;;;;;55.42;27.92;;;;;;;10.62;100.00;97693.47;5133695;27;20186;-65
2023/11/25 00:10:07;;;;;;;53.63;25.65;;;;;;;10.54;100.00;97690.03;5133836;27;20064;-63
2023/11/25 00:12:34;;;;;;;57.38;26.65;;;;;;;10.33;100.00;97676.28;5134955;27;20057;-65
2023/11/25 00:15:00;;;;;;;49.75;24.83;;;;;;;10.47;100.00;97660.16;5134149;28;20038;-66
2023/11/25 00:17:28;;;;;;;48.60;24.73;;;;;;;10.49;100.00;97663.41;5133786;27;20098;-63
2023/11/25 00:19:55;;;;;;;45.13;24.33;;;;;;;10.48;100.00;97684.78;5132769;27;20112;-66
2023/11/25 00:22:21;;;;;;;52.30;25.80;;;;;;;10.27;100.00;97663.91;5134646;27;20062;-65
2023/11/25 00:24:48;;;;;;;50.75;24.60;;;;;;;10.18;100.00;97668.59;5134020;27;20248;-63
2023/11/25 00:27:14;;;;;;;56.20;25.90;;;;;;;10.37;100.00;97682.78;5134013;27;20065;-66
2023/11/25 00:29:39;;;;;;;47.13;24.75;;;;;;;10.54;100.00;97684.75;5134319;27;20042;-65
2023/11/25 00:32:05;;;;;;;50.83;23.88;;;;;;;10.50;100.00;97685.38;5133444;27;20031;-63
2023/11/25 00:34:30;;;;;;;51.03;24.05;;;;;;;10.42;100.00;97659.19;5133963;27;20289;-63
2023/11/25 00:36:56;;;;;;;46.53;24.40;;;;;;;10.37;100.00;97673.00;5133802;27;20039;-66
2023/11/25 00:39:21;;;;;;;47.00;23.00;;;;;;;10.57;100.00;97650.94;5133363;27;20035;-63
2023/11/25 00:41:48;;;;;;;45.40;23.52;;;;;;;10.79;100.00;97653.03;5133511;27;20031;-64
2023/11/25 00:44:14;;;;;;;49.88;24.05;;;;;;;10.83;100.00;97638.34;5133834;27;20042;-65
2023/11/25 00:46:39;;;;;;;48.58;22.92;;;;;;;10.80;100.00;97636.13;5133526;27;20027;-65
2023/11/25 00:49:05;;;;;;;49.45;24.80;;;;;;;10.87;100.00;97634.25;5136035;27;20027;-63
2023/11/25 00:51:31;;;;;;;50.95;24.23;;;;;;;10.96;100.00;97621.56;5137281;27;20246;-62
2023/11/25 00:53:57;;;;;;;45.70;23.08;;;;;;;10.86;100.00;97603.50;5137093;27;20093;-65
2023/11/25 00:56:23;;;;;;;59.67;25.23;;;;;;;10.85;100.00;97598.44;5137267;27;20031;-63
2023/11/25 00:58:48;;;;;;;53.83;26.33;;;;;;;10.89;100.00;97594.31;5137168;27;20039;-63
2023/11/25 01:01:13;;;;;;;57.15;27.45;;;;;;;10.95;100.00;97582.88;5136871;27;20027;-63
2023/11/25 01:03:39;;;;;;;83.38;26.50;;;;;;;10.78;100.00;97584.44;5137410;27;20342;-65
2023/11/25 01:06:08;;;;;;;63.67;25.80;;;;;;;10.39;100.00;97582.84;5137816;27;20031;-63
2023/11/25 01:08:33;;;;;;;66.45;26.00;;;;;;;10.43;100.00;97587.53;5138258;27;20058;-65
2023/11/25 01:10:59;;;;;;;86.13;27.40;;;;;;;10.55;100.00;97580.53;5137857;27;20088;-65
2023/11/25 01:13:25;;;;;;;62.50;26.02;;;;;;;10.56;100.00;97583.97;5138146;27;20034;-65
2023/11/25 01:15:54;;;;;;;59.83;26.73;;;;;;;10.53;100.00;97584.41;5136385;27;20363;-65
2023/11/25 01:18:20;;;;;;;70.10;27.08;;;;;;;10.59;100.00;97578.25;5136755;27;20229;-65
2023/11/25 01:20:45;;;;;;;67.60;27.10;;;;;;;10.56;100.00;97565.47;5136663;27;20290;-63
2023/11/25 01:23:11;;;;;;;60.78;26.33;;;;;;;10.71;100.00;97570.44;5136923;27;20072;-66
2023/11/25 01:25:36;;;;;;;55.58;25.48;;;;;;;10.77;100.00;97562.44;5136875;27;20332;-64
2023/11/25 01:28:03;;;;;;;70.57;28.35;;;;;;;10.81;100.00;97562.81;5134093;27;20069;-66
2023/11/25 01:30:30;;;;;;;55.65;27.92;;;;;;;10.81;100.00;97549.59;5138283;27;20102;-65
2023/11/25 01:32:58;;;;;;;64.00;26.83;;;;;;;10.82;100.00;97545.91;5136569;27;20321;-63
2023/11/25 01:35:24;;;;;;;60.97;25.85;;;;;;;10.78;100.00;97540.25;5134288;27;20031;-63
2023/11/25 01:37:50;;;;;;;56.22;25.23;;;;;;;10.82;100.00;97522.09;5136852;27;20052;-64
2023/11/25 01:40:15;;;;;;;52.95;24.35;;;;;;;10.94;100.00;97512.41;5137524;27;20331;-63
2023/11/25 01:42:41;;;;;;;57.92;26.98;;;;;;;11.02;100.00;97509.47;5136902;27;20035;-66
2023/11/25 01:45:08;;;;;;;50.47;25.75;;;;;;;11.07;100.00;97499.03;5136504;27;20098;-65
2023/11/25 01:47:34;;;;;;;65.88;25.83;;;;;;;11.11;100.00;97494.91;5136280;27;20047;-63
2023/11/25 01:50:02;;;;;;;52.85;25.35;;;;;;;11.02;100.00;97493.56;5137349;27;20026;-63
2023/11/25 01:52:30;;;;;;;54.55;25.75;;;;;;;10.89;100.00;97483.13;5136401;27;20070;-65
2023/11/25 01:54:56;;;;;;;59.20;26.35;;;;;;;10.72;100.00;97476.78;5135030;27;20039;-64
2023/11/25 01:57:21;;;;;;;57.45;27.58;;;;;;;10.87;100.00;97471.94;5136620;27;20035;-65
2023/11/25 01:59:48;;;;;;;55.80;26.58;;;;;;;10.92;100.00;97476.56;5135962;27;20202;-65
2023/11/25 02:02:17;;;;;;;52.78;25.08;;;;;;;10.88;100.00;97471.72;5136445;27;20035;-63
2023/11/25 02:04:42;;;;;;;66.55;28.63;;;;;;;10.40;100.00;97453.03;5135924;27;20106;-63
2023/11/25 02:07:10;;;;;;;64.65;27.83;;;;;;;10.48;100.00;97450.13;5134946;27;20041;-66
2023/11/25 02:09:35;;;;;;;74.43;31.83;;;;;;;10.58;100.00;97480.56;5136126;27;20341;-65
2023/11/25 02:12:02;;;;;;;77.50;33.13;;;;;;;10.54;100.00;97465.13;5135973;27;20047;-63
2023/11/25 02:14:28;;;;;;;73.38;28.75;;;;;;;10.54;100.00;97469.59;5136630;27;20030;-66
2023/11/25 02:16:56;;;;;;;65.80;29.10;;;;;;;10.60;100.00;97470.56;5135971;27;20035;-62
2023/11/25 02:19:25;;;;;;;84.55;31.58;;;;;;;10.74;100.00;97457.00;5135393;27;20031;-66
2023/11/25 02:21:52;;;;;;;86.55;31.38;;;;;;;10.59;100.00;97468.94;5135692;27;20035;-63
2023/11/25 02:24:18;;;;;;;67.15;28.88;;;;;;;10.58;100.00;97462.84;5135964;27;20423;-62
2023/11/25 02:26:44;;;;;;;74.03;30.50;;;;;;;10.64;100.00;97443.47;5135622;27;20383;-65
2023/11/25 02:29:09;;;;;;;73.95;28.50;;;;;;;10.18;100.00;97427.94;5136201;27;20097;-65
2023/11/25 02:31:39;;;;;;;97.57;33.70;;;;;;;9.87;100.00;97423.47;5135062;27;20267;-62
2023/11/25 02:34:07;;;;;;;94.97;32.58;;;;;;;10.17;100.00;97415.72;5135781;27;20038;-63
2023/11/25 02:36:33;;;;;;;114.82;32.03;;;;;;;10.38;100.00;97427.78;5135360;27;20035;-63
2023/11/25 02:39:00;;;;;;;58.90;28.20;;;;;;;10.48;100.00;97436.88;5135591;27;20369;-65
2023/11/25 02:41:25;;;;;;;87.95;41.15;;;;;;;10.57;100.00;97436.59;5135530;27;20073;-63
2023/11/25 02:43:51;;;;;;;105.18;32.30;;;;;;;10.74;100.00;97427.06;5135748;27;20098;-63
2023/11/25 02:46:18;;;;;;;98.57;33.95;;;;;;;10.74;100.00;97422.59;5135360;27;20035;-65
2023/11/25 02:48:43;;;;;;;107.00;33.63;;;;;;;10.68;100.00;97420.00;5136108;27;20102;-63
2023/11/25 02:51:09;;;;;;;89.85;30.20;;;;;;;10.48;100.00;97422.84;5134706;27;20027;-65
2023/11/25 02:53:34;;;;;;;100.85;32.08;;;;;;;10.10;100.00;97410.50;5133749;27;20072;-65
2023/11/25 02:56:00;;;;;;;103.40;34.10;;;;;;;10.10;100.00;97405.22;5135667;27;20034;-63
2023/11/25 02:58:27;;;;;;;177.30;61.00;;;;;;;10.11;100.00;97387.50;5134949;27;20035;-63
2023/11/25 03:01:01;;;;;;;143.23;47.08;;;;;;;10.23;100.00;97386.63;5136689;27;20054;-65
2023/11/25 03:03:27;;;;;;;155.75;46.05;;;;;;;10.36;100.00;97376.94;5134679;27;20035;-65
2023/11/25 03:05:53;;;;;;;85.50;34.63;;;;;;;10.39;100.00;97369.38;5134489;27;20027;-65
2023/11/25 03:08:20;;;;;;;100.22;28.10;;;;;;;10.32;100.00;97367.81;5134989;27;20023;-65
2023/11/25 03:10:46;;;;;;;168.05;35.90;;;;;;;10.18;100.00;97357.34;5133267;27;20035;-65
2023/11/25 03:13:12;;;;;;;104.68;33.45;;;;;;;10.38;100.00;97353.72;5134293;27;20038;-63
2023/11/25 03:15:41;;;;;;;135.07;31.38;;;;;;;10.51;100.00;97343.03;5134663;27;20320;-62
2023/11/25 03:18:07;;;;;;;163.45;30.52;;;;;;;10.64;100.00;97334.94;5134209;27;20376;-63
2023/11/25 03:20:34;;;;;;;90.55;30.20;;;;;;;10.29;100.00;97339.97;5133688;27;20449;-62
2023/11/25 03:23:00;;;;;;;55.75;23.88;;;;;;;10.34;100.00;97332.19;5136086;27;20039;-66
2023/11/25 03:25:27;;;;;;;145.32;30.80;;;;;;;10.23;100.00;97324.97;5135192;27;20027;-64
2023/11/25 03:27:53;;;;;;;99.82;26.25;;;;;;;10.38;100.00;97321.97;5135573;27;20055;-63
2023/11/25 03:30:19;;;;;;;101.90;28.70;;;;;;;10.43;100.00;97316.88;5134468;27;20038;-65
2023/11/25 03:32:45;;;;;;;101.25;27.70;;;;;;;10.54;100.00;97313.50;5135111;27;20127;-63
2023/11/25 03:35:10;;;;;;;77.53;22.98;;;;;;;10.55;100.00;97299.22;5135153;27;20371;-63
2023/11/25 03:37:36;;;;;;;62.78;20.70;;;;;;;10.05;100.00;97304.56;5134097;27;20079;-63
2023/11/25 03:40:01;;;;;;;94.03;26.15;;;;;;;10.20;100.00;97299.78;5134465;27;20043;-65
2023/11/25 03:42:27;;;;;;;106.93;27.20;;;;;;;10.29;100.00;97288.91;5134604;27;20031;-63
2023/11/25 03:44:52;;;;;;;97.43;25.95;;;;;;;10.41;100.00;97300.41;5134724;27;20038;-63
2023/11/25 03:47:18;;;;;;;116.45;27.42;;;;;;;10.55;100.00;97294.75;5134360;27;20383;-65
2023/11/25 03:49:44;;;;;;;73.82;28.17;;;;;;;10.44;100.00;97278.81;5134926;27;20042;-64
2023/11/25 03:52:10;;;;;;;157.05;48.78;;;;;;;10.45;100.00;97267.19;5134426;27;20092;-63
2023/11/25 03:54:38;;;;;;;66.65;24.38;;;;;;;10.60;100.00;97280.84;5134377;27;20276;-65
2023/11/25 03:57:03;;;;;;;99.25;26.92;;;;;;;10.64;100.00;97281.22;5133982;27;20074;-63
2023/11/25 03:59:29;;;;;;;50.67;21.55;;;;;;;10.39;100.00;97271.50;5134439;27;20039;-63
2023/11/25 04:01:55;;;;;;;80.70;22.98;;;;;;;10.60;100.00;97285.34;5134131;27;20039;-63
2023/11/25 04:04:21;;;;;;;48.83;21.02;;;;;;;10.59;100.00;97284.53;5134448;27;20046;-64
2023/11/25 04:06:49;;;;;;;64.72;24.33;;;;;;;10.28;100.00;97285.47;5134089;27;20281;-62
2023/11/25 04:09:15;;;;;;;47.63;21.88;;;;;;;10.16;100.00;97268.66;5134220;27;20035;-65
2023/11/25 04:11:42;;;;;;;60.17;23.75;;;;;;;10.15;100.00;97264.41;5133947;27;20236;-65
2023/11/25 04:14:07;;;;;;;71.28;25.48;;;;;;;10.23;100.00;97257.03;5134080;28;20104;-66
2023/11/25 04:16:33;;;;;;;59.28;19.73;;;;;;;10.18;100.00;97259.50;5133841;28;20038;-65
2023/11/25 04:18:59;;;;;;;65.50;20.45;;;;;;;10.10;100.00;97253.69;5134044;27;20035;-62
2023/11/25 04:21:25;;;;;;;42.70;18.30;;;;;;;10.00;100.00;97251.53;5134065;27;20031;-65
2023/11/25 04:23:56;;;;;;;55.10;20.95;;;;;;;10.04;100.00;97254.56;5136080;27;20042;-62
2023/11/25 04:26:22;;;;;;;44.90;17.73;;;;;;;10.15;100.00;97251.19;5136649;27;20067;-65
2023/11/25 04:28:48;;;;;;;60.50;25.95;;;;;;;10.18;100.00;97242.81;5137760;27;20027;-63
2023/11/25 04:31:14;;;;;;;61.65;20.75;;;;;;;10.10;100.00;97243.91;5138507;27;20038;-65
2023/11/25 04:33:40;;;;;;;38.72;18.65;;;;;;;10.02;100.00;97240.75;5137770;27;20027;-65
2023/11/25 04:36:06;;;;;;;42.92;20.65;;;;;;;10.13;100.00;97248.75;5136953;27;20027;-62
2023/11/25 04:38:31;;;;;;;56.92;20.23;;;;;;;10.30;100.00;97245.56;5138355;27;20043;-65
2023/11/25 04:40:57;;;;;;;41.88;19.20;;;;;;;10.40;100.00;97245.84;5137164;27;20043;-62
2023/11/25 04:43:24;;;;;;;79.32;50.03;;;;;;;9.89;100.00;97226.66;5137928;27;20031;-65
2023/11/25 04:45:49;;;;;;;51.85;27.38;;;;;;;9.86;100.00;97234.19;5135925;27;20409;-63
2023/11/25 04:48:14;;;;;;;48.33;19.65;;;;;;;10.08;100.00;97232.75;5137891;27;20349;-65
2023/11/25 04:50:40;;;;;;;75.28;20.60;;;;;;;10.22;100.00;97228.97;5138983;27;20124;-63
2023/11/25 04:53:05;;;;;;;63.40;26.27;;;;;;;10.21;100.00;97235.28;5138258;27;20039;-65
2023/11/25 04:55:31;;;;;;;37.50;19.13;;;;;;;9.67;100.00;97232.56;5138270;27;20172;-65
2023/11/25 04:57:57;;;;;;;41.40;18.45;;;;;;;9.80;100.00;97240.38;5137916;27;20053;-62
2023/11/25 05:00:22;;;;;;;38.40;15.93;;;;;;;9.82;100.00;97228.53;5137361;27;20321;-65
2023/11/25 05:02:48;;;;;;;37.20;18.13;;;;;;;9.95;100.00;97230.25;5138248;27;20107;-63
2023/11/25 05:05:13;;;;;;;32.10;17.02;;;;;;;10.05;100.00;97227.91;5137314;27;20050;-65
2023/11/25 05:07:39;;;;;;;34.20;16.38;;;;;;;10.17;100.00;97228.78;5137352;27;20050;-66
2023/11/25 05:10:06;;;;;;;30.70;17.92;;;;;;;10.15;100.00;97227.41;5139724;27;20023;-63
2023/11/25 05:12:32;;;;;;;36.70;17.42;;;;;;;10.19;100.00;97225.91;5137379;27;20116;-66
2023/11/25 05:14:57;;;;;;;36.35;16.48;;;;;;;10.19;100.00;97234.66;5137792;27;20043;-65
2023/11/25 05:17:25;;;;;;;37.20;18.65;;;;;;;10.17;100.00;97225.34;5135325;27;20085;-65
2023/11/25 05:19:50;;;;;;;122.47;37.63;;;;;;;10.21;100.00;97198.25;5135544;27;20031;-65
2023/11/25 05:22:15;;;;;;;76.82;30.25;;;;;;;10.01;100.00;97205.56;5137239;27;20036;-63
2023/11/25 05:24:41;;;;;;;60.15;23.20;;;;;;;10.16;100.00;97234.28;5137214;27;20031;-63
2023/11/25 05:27:06;;;;;;;44.35;18.90;;;;;;;10.04;100.00;97221.00;5136935;27;20039;-66
2023/11/25 05:29:32;;;;;;;40.45;20.80;;;;;;;9.84;100.00;97204.53;5136757;27;20043;-63
2023/11/25 05:31:57;;;;;;;35.33;18.42;;;;;;;9.59;100.00;97199.31;5137123;27;20031;-65
2023/11/25 05:34:26;;;;;;;44.88;21.10;;;;;;;9.88;100.00;97218.94;5135769;27;20200;-63
2023/11/25 05:36:52;;;;;;;41.45;20.17;;;;;;;9.90;100.00;97219.53;5135522;27;20042;-65
2023/11/25 05:39:20;;;;;;;42.80;19.63;;;;;;;9.84;100.00;97204.53;5137181;27;20039;-63
2023/11/25 05:41:51;;;;;;;38.42;19.40;;;;;;;9.78;100.00;97200.94;5136418;27;20127;-65
2023/11/25 05:44:17;;;;;;;40.22;20.13;;;;;;;10.03;100.00;97211.44;5136688;27;20027;-65
2023/11/25 05:46:42;;;;;;;39.83;19.00;;;;;;;10.16;100.00;97218.44;5136516;27;20035;-65
2023/11/25 05:49:08;;;;;;;40.88;24.45;;;;;;;10.21;100.00;97214.13;5136472;27;20202;-62
2023/11/25 05:51:36;;;;;;;41.17;23.38;;;;;;;10.24;100.00;97208.41;5135522;27;20359;-63
2023/11/25 05:54:02;;;;;;;40.08;20.65;;;;;;;10.23;100.00;97196.19;5134989;27;20035;-65
2023/11/25 05:56:27;;;;;;;41.65;23.20;;;;;;;10.13;100.00;97182.66;5136656;27;20325;-62
2023/11/25 05:58:53;;;;;;;44.13;24.98;;;;;;;10.14;100.00;97184.28;5136485;27;20046;-64
2023/11/25 06:01:20;;;;;;;34.92;19.98;;;;;;;10.28;100.00;97192.88;5137294;27;20027;-63
2023/11/25 06:03:46;;;;;;;36.42;19.17;;;;;;;10.41;100.00;97190.13;5136241;27;20332;-65
2023/11/25 06:06:12;;;;;;;48.03;24.45;;;;;;;10.47;100.00;97186.56;5137079;27;20098;-64
2023/11/25 06:08:37;;;;;;;43.75;25.23;;;;;;;10.56;100.00;97184.44;5137479;27;20247;-64
2023/11/25 06:11:03;;;;;;;42.20;24.05;;;;;;;10.49;100.00;97184.50;5136950;27;20027;-63
2023/11/25 06:13:29;;;;;;;41.67;22.20;;;;;;;10.60;100.00;97182.94;5136019;27;20032;-66
2023/11/25 06:15:56;;;;;;;34.47;19.73;;;;;;;10.48;100.00;97192.66;5136756;27;20031;-63
2023/11/25 06:18:22;;;;;;;42.65;28.65;;;;;;;10.33;100.00;97173.72;5136034;27;20035;-65
2023/11/25 06:20:47;;;;;;;42.17;23.83;;;;;;;10.32;100.00;97182.69;5136251;27;20116;-65
2023/11/25 06:23:14;;;;;;;39.92;19.40;;;;;;;10.29;100.00;97196.34;5136333;27;20059;-65
2023/11/25 06:25:42;;;;;;;37.53;19.88;;;;;;;10.26;100.00;97197.59;5136632;27;20051;-63
2023/11/25 06:28:09;;;;;;;43.05;21.52;;;;;;;10.32;100.00;97194.06;5136866;27;20063;-66
2023/11/25 06:30:34;;;;;;;48.97;23.13;;;;;;;10.38;100.00;97185.22;5136679;27;20065;-65
2023/11/25 06:33:00;;;;;;;47.33;27.90;;;;;;;10.11;100.00;97175.97;5136244;27;20038;-63
2023/11/25 06:35:26;;;;;;;55.65;31.58;;;;;;;9.99;100.00;97167.97;5135322;27;20034;-63
2023/11/25 06:37:51;;;;;;;55.03;32.30;;;;;;;9.77;100.00;97170.25;5135074;27;20376;-63
2023/11/25 06:40:17;;;;;;;63.90;41.88;;;;;;;9.82;100.00;97185.44;5135279;27;20027;-65
2023/11/25 06:42:42;;;;;;;56.72;25.88;;;;;;;9.93;100.00;97200.59;5135633;27;20060;-63
2023/11/25 06:45:08;;;;;;;54.72;24.88;;;;;;;10.06;100.00;97194.34;5135860;27;20058;-65
2023/11/25 06:47:34;;;;;;;52.60;25.23;;;;;;;10.22;100.00;97191.13;5135151;27;20209;-65
2023/11/25 06:50:00;;;;;;;46.72;23.27;;;;;;;10.33;100.00;97193.03;5135729;27;20417;-63
2023/11/25 06:52:27;;;;;;;53.25;23.08;;;;;;;10.33;100.00;97200.97;5134667;27;20392;-65
2023/11/25 06:54:52;;;;;;;44.15;23.63;;;;;;;10.43;100.00;97196.00;5135010;27;20031;-63
2023/11/25 06:57:19;;;;;;;47.53;24.08;;;;;;;10.46;100.00;97210.59;5131200;27;20032;-62
2023/11/25 06:59:45;;;;;;;58.83;32.13;;;;;;;10.52;100.00;97215.00;5131417;27;20043;-65
2023/11/25 07:02:12;;;;;;;52.35;23.80;;;;;;;10.31;100.00;97210.97;5122452;27;20067;-66
2023/11/25 07:04:38;;;;;;;44.97;21.83;;;;;;;10.46;100.00;97224.66;5122651;27;20121;-62
2023/11/25 07:07:03;;;;;;;41.38;21.50;;;;;;;10.46;100.00;97218.53;5122323;27;20044;-62
2023/11/25 07:09:30;;;;;;;49.40;23.33;;;;;;;10.48;100.00;97200.59;5129931;27;20061;-66
2023/11/25 07:11:55;;;;;;;56.13;24.38;;;;;;;10.51;100.00;97194.88;5131109;27;20265;-65
2023/11/25 07:14:21;;;;;;;47.40;22.95;;;;;;;10.49;100.00;97215.44;5122057;27;20071;-65
2023/11/25 07:16:47;;;;;;;43.25;22.58;;;;;;;10.53;100.00;97219.25;5121308;27;20313;-63
2023/11/25 07:19:13;;;;;;;44.50;21.80;;;;;;;10.57;100.00;97209.03;5122039;27;20043;-65
2023/11/25 07:21:38;;;;;;;49.53;24.40;;;;;;;10.61;100.00;97204.91;5121722;27;20055;-65
2023/11/25 07:24:04;;;;;;;61.08;32.33;;;;;;;10.70;100.00;97214.16;5120882;27;20031;-63
2023/11/25 07:26:30;;;;;;;53.72;25.15;;;;;;;10.75;100.00;97212.47;5130673;27;20276;-63
2023/11/25 07:28:56;;;;;;;47.28;22.92;;;;;;;10.84;100.00;97210.31;5130477;27;20035;-65
2023/11/25 07:31:22;;;;;;;50.17;23.83;;;;;;;10.97;100.00;97212.75;5121671;27;20155;-63
2023/11/25 07:33:47;;;;;;;48.67;24.55;;;;;;;11.07;100.00;97220.97;5121792;27;20034;-63
2023/11/25 07:36:13;;;;;;;48.28;24.42;;;;;;;11.15;100.00;97222.47;5121178;27;20237;-65
2023/11/25 07:38:38;;;;;;;46.35;24.98;;;;;;;11.15;100.00;97227.78;5121356;27;20349;-64
2023/11/25 07:41:05;;;;;;;50.05;23.63;;;;;;;11.15;100.00;97219.81;5121388;27;20104;-65
2023/11/25 07:43:31;;;;;;;50.55;25.25;;;;;;;11.13;100.00;97220.06;5121229;27;20035;-66
2023/11/25 07:45:56;;;;;;;43.78;23.10;;;;;;;11.19;100.00;97213.84;5120997;27;20036;-66
2023/11/25 07:48:22;;;;;;;55.28;25.65;;;;;;;11.01;100.00;97213.13;5131177;27;20020;-65
2023/11/25 07:50:47;;;;;;;49.60;25.25;;;;;;;11.12;100.00;97209.69;5121851;27;20039;-65
2023/11/25 07:53:13;;;;;;;49.97;25.42;;;;;;;11.16;100.00;97208.19;5121310;27;20055;-63
2023/11/25 07:55:39;;;;;;;55.08;25.45;;;;;;;11.13;100.00;97214.75;5120884;27;20031;-66
2023/11/25 07:58:05;;;;;;;56.45;26.02;;;;;;;11.06;100.00;97205.28;5120580;27;20042;-63
2023/11/25 08:00:31;;;;;;;60.10;26.70;;;;;;;11.06;100.00;97214.03;5120631;27;20322;-66
2023/11/25 08:02:58;;;;;;;54.75;25.73;;;;;;;11.07;100.00;97218.31;5120685;27;20039;-63
2023/11/25 08:05:24;;;;;;;57.40;27.38;;;;;;;11.11;100.00;97211.53;5120933;28;20325;-62
2023/11/25 08:07:53;;;;;;;52.80;25.10;;;;;;;11.17;100.00;97215.09;5121678;28;20039;-63
2023/11/25 08:10:20;;;;;;;49.55;25.08;;;;;;;10.88;100.00;97212.28;5132113;28;20054;-63
2023/11/25 08:12:46;;;;;;;51.85;23.80;;;;;;;10.94;100.00;97205.28;5120881;27;20059;-63
2023/11/25 08:15:13;;;;;;;44.35;20.65;;;;;;;10.95;100.00;97204.22;5120940;28;20045;-66
2023/11/25 08:17:41;;;;;;;43.50;20.25;;;;;;;10.96;100.00;97219.09;5121647;28;20297;-63
2023/11/25 08:20:08;;;;;;;48.80;20.20;;;;;;;11.02;100.00;97227.97;5120033;28;20027;-63
2023/11/25 08:22:35;;;;;;;42.63;21.35;;;;;;;11.01;100.00;97224.50;5130425;28;20482;-63
2023/11/25 08:25:05;;;;;;;44.28;20.95;;;;;;;11.07;100.00;97236.03;5121085;27;20039;-65
2023/11/25 08:27:31;;;;;;;38.38;18.85;;;;;;;11.12;100.00;97242.28;5120900;28;20031;-63
2023/11/25 08:29:56;;;;;;;38.10;18.92;;;;;;;11.16;100.00;97248.72;5120801;28;20039;-62
2023/11/25 08:32:21;;;;;;;34.25;18.52;;;;;;;11.15;100.00;97251.59;5120587;28;20307;-63
2023/11/25 08:34:47;;;;;;;40.55;18.67;;;;;;;11.20;100.00;97243.78;5120825;28;20080;-66
2023/11/25 08:37:12;;;;;;;41.47;20.40;;;;;;;11.29;100.00;97246.91;5122946;28;20035;-63
2023/11/25 08:39:39;;;;;;;43.38;21.75;;;;;;;11.36;100.00;97245.78;5126957;27;20031;-63
2023/11/25 08:42:04;;;;;;;38.15;20.23;;;;;;;11.29;100.00;97242.44;5124868;28;20023;-63
2023/11/25 08:44:29;;;;;;;38.17;20.42;;;;;;;11.32;100.00;97243.81;5125422;27;20035;-63
2023/11/25 08:46:58;;;;;;;44.90;20.02;;;;;;;11.31;100.00;97245.66;5120639;28;20054;-62
2023/11/25 08:49:24;;;;;;;32.88;15.82;;;;;;;11.30;100.00;97238.75;5121116;28;20039;-63
2023/11/25 08:51:51;;;;;;;26.60;13.73;;;;;;;11.25;100.00;97237.81;5120403;28;20236;-63
2023/11/25 08:54:18;;;;;;;21.88;12.93;;;;;;;11.14;100.00;97234.91;5120288;28;20063;-63
2023/11/25 08:56:45;;;;;;;13.20;7.68;;;;;;;10.93;100.00;97229.31;5120312;28;20426;-65
2023/11/25 08:59:14;;;;;;;13.50;9.13;;;;;;;10.86;100.00;97243.47;5120699;28;20050;-65
2023/11/25 09:01:42;;;;;;;9.88;6.03;;;;;;;10.80;100.00;97251.50;5120497;27;20063;-65
2023/11/25 09:04:07;;;;;;;5.40;3.15;;;;;;;10.70;100.00;97248.56;5121265;27;20035;-65
2023/11/25 09:06:35;;;;;;;4.10;2.35;;;;;;;10.55;100.00;97255.06;5120268;27;20046;-63
2023/11/25 09:09:01;;;;;;;2.20;1.50;;;;;;;10.38;100.00;97253.19;5121146;27;20060;-65
2023/11/25 09:11:26;;;;;;;1.48;1.15;;;;;;;10.28;100.00;97248.44;5133812;27;20247;-65
2023/11/25 09:13:54;;;;;;;1.75;1.20;;;;;;;10.26;100.00;97255.78;5123983;27;20027;-62
2023/11/25 09:16:20;;;;;;;3.65;1.80;;;;;;;10.24;100.00;97257.84;5123922;27;20310;-65
2023/11/25 09:18:45;;;;;;;4.13;2.33;;;;;;;10.20;100.00;97260.13;5124164;27;20031;-63
2023/11/25 09:21:10;;;;;;;1.58;1.40;;;;;;;10.09;100.00;97255.53;5123893;27;20028;-63
2023/11/25 09:23:36;;;;;;;3.20;2.03;;;;;;;10.00;100.00;97254.19;5124180;27;20043;-65
2023/11/25 09:26:02;;;;;;;1.70;1.52;;;;;;;9.87;100.00;97257.78;5123607;27;20043;-68
2023/11/25 09:28:27;;;;;;;1.38;1.15;;;;;;;9.85;100.00;97261.66;5123485;27;20047;-62
2023/11/25 09:30:53;;;;;;;2.45;1.83;;;;;;;9.83;100.00;97264.53;5123459;27;20039;-63
2023/11/25 09:33:18;;;;;;;2.65;1.50;;;;;;;9.77;100.00;97257.47;5123958;27;20023;-65
2023/11/25 09:35:45;;;;;;;2.20;1.20;;;;;;;9.76;100.00;97258.50;5123800;27;20049;-63
2023/11/25 09:38:10;;;;;;;3.75;1.58;;;;;;;9.79;100.00;97252.78;5123782;27;20308;-62
2023/11/25 09:40:36;;;;;;;2.22;1.85;;;;;;;9.84;100.00;97250.28;5124232;27;20031;-63
2023/11/25 09:43:02;;;;;;;3.05;2.58;;;;;;;9.87;100.00;97244.56;5124509;27;20039;-65
2023/11/25 09:45:29;;;;;;;3.25;2.53;;;;;;;9.85;100.00;97238.69;5124393;27;20057;-62
2023/11/25 09:47:55;;;;;;;8.82;4.32;;;;;;;9.88;100.00;97242.72;5123484;27;20031;-62
2023/11/25 09:50:21;;;;;;;6.68;5.53;;;;;;;9.90;100.00;97244.13;5123971;27;20042;-61
2023/11/25 09:52:50;;;;;;;4.00;2.20;;;;;;;9.91;100.00;97244.94;5124023;27;20106;-65
2023/11/25 09:55:18;;;;;;;4.47;2.30;;;;;;;9.87;100.00;97231.34;5123078;27;20039;-62
2023/11/25 09:57:45;;;;;;;3.50;1.92;;;;;;;9.73;100.00;97235.13;5124577;27;20102;-65
2023/11/25 10:00:16;;;;;;;4.68;1.65;;;;;;;9.71;100.00;97239.03;5137217;27;20080;-62
2023/11/25 10:02:43;;;;;;;2.45;1.70;;;;;;;9.58;100.00;97229.38;5136612;27;20042;-61
2023/11/25 10:05:09;;;;;;;6.95;2.65;;;;;;;9.54;100.00;97230.84;5136479;27;20865;-64
2023/11/25 10:07:34;;;;;;;3.08;1.95;;;;;;;9.46;100.00;97237.22;5136433;27;20045;-66
2023/11/25 10:10:01;;;;;;;2.38;1.58;;;;;;;9.39;100.00;97239.09;5135977;27;20035;-66
2023/11/25 10:12:26;;;;;;;7.47;2.53;;;;;;;9.31;100.00;97226.13;5136510;27;20039;-62
2023/11/25 10:14:52;;;;;;;4.55;2.08;;;;;;;9.30;100.00;97235.06;5135855;27;20052;-63
2023/11/25 10:17:19;;;;;;;2.75;1.92;;;;;;;9.37;100.00;97238.50;5135809;27;20042;-66
2023/11/25 10:19:48;;;;;;;4.75;2.47;;;;;;;9.23;100.00;97243.03;5136497;27;20043;-65
2023/11/25 10:22:15;;;;;;;6.57;3.72;;;;;;;9.32;100.00;97226.94;5135953;27;20058;-64
2023/11/25 10:25:00;;;;;;;5.40;2.95;;;;;;;9.32;100.00;97237.50;5135004;27;20100;-66
2023/11/25 10:27:25;;;;;;;2.50;1.98;;;;;;;9.27;100.00;97238.13;5135516;27;20102;-62
2023/11/25 10:29:53;;;;;;;4.10;2.35;;;;;;;9.28;100.00;97226.56;5130761;27;20057;-65
2023/11/25 10:32:21;;;;;;;2.42;1.92;;;;;;;9.19;100.00;97233.94;5135671;27;20104;-63
2023/11/25 10:34:47;;;;;;;3.47;1.92;;;;;;;9.05;100.00;97231.59;5135451;27;20317;-64
2023/11/25 10:37:12;;;;;;;3.97;2.13;;;;;;;8.96;100.00;97229.22;5134395;27;20042;-65
2023/11/25 10:39:38;;;;;;;5.05;2.38;;;;;;;9.11;100.00;97230.75;5134500;27;20035;-66
2023/11/25 10:42:07;;;;;;;6.13;3.03;;;;;;;9.13;100.00;97229.50;5135147;27;20031;-65
2023/11/25 10:44:34;;;;;;;6.47;2.47;;;;;;;9.18;100.00;97228.88;5135246;27;20027;-66
2023/11/25 10:47:02;;;;;;;4.82;3.05;;;;;;;9.09;100.00;97222.22;5134914;27;20031;-65
2023/11/25 10:49:36;;;;;;;3.58;2.45;;;;;;;9.17;100.00;97225.41;5136214;27;20031;-65
2023/11/25 10:52:06;;;;;;;3.45;2.42;;;;;;;9.19;100.00;97217.28;5136244;27;20069;-62
2023/11/25 10:54:34;;;;;;;3.88;2.80;;;;;;;9.18;100.00;97223.59;5136765;27;20055;-66
2023/11/25 10:57:05;;;;;;;5.18;2.67;;;;;;;9.13;100.00;97216.31;5135695;27;20094;-65
2023/11/25 10:59:32;;;;;;;3.60;2.75;;;;;;;9.10;100.00;97205.38;5135560;27;20034;-63
2023/11/25 11:02:02;;;;;;;2.75;2.20;;;;;;;9.17;100.00;97214.03;5134964;27;20140;-67
2023/11/25 11:04:41;;;;;;;2.13;1.92;;;;;;;9.21;100.00;97213.41;5133255;27;20038;-66
2023/11/25 11:07:14;;;;;;;2.13;1.67;;;;;;;9.28;100.00;97200.97;5134473;27;20035;-66
2023/11/25 11:09:45;;;;;;;2.33;1.80;;;;;;;9.35;100.00;97197.44;5134388;27;20027;-66